Time;durP1;ratioP1;P1;durP2;ratioP2;P2;SDS_P1;SDS_P2;PMS_P1;PMS_P2;Temp;Humidity;BMP_temperature;BMP_pressure;BME280_temperature;BME280_humidity;BME280_pressure;Samples;Min_cycle;Max_cycle;Signal;HPM_P1;HPM_P2
2024/01/14 00:00:09;;;;;;;3.40;2.23;;;2.90;99.90;2.60;99751.00;;;;4964026;28;82633;-70
2024/01/14 00:02:35;;;;;;;8.53;2.77;;;2.80;99.90;2.60;99743.00;;;;4963671;28;82894;-70
2024/01/14 00:05:01;;;;;;;5.07;3.57;;;3.20;99.90;2.60;99727.00;;;;4962646;28;82720;-68
2024/01/14 00:07:27;;;;;;;4.70;3.33;;;2.90;99.90;2.60;99721.00;;;;4955578;28;82404;-69
2024/01/14 00:09:53;;;;;;;3.30;2.57;;;2.80;99.90;2.60;99710.00;;;;4961988;28;97920;-69
2024/01/14 00:12:18;;;;;;;4.10;2.87;;;2.70;99.90;2.60;99709.00;;;;4961497;28;113296;-69
2024/01/14 00:14:44;;;;;;;3.60;3.03;;;2.80;99.90;2.60;99706.00;;;;4959806;28;112550;-69
2024/01/14 00:17:10;;;;;;;6.10;3.50;;;3.30;99.90;2.60;99693.00;;;;4958457;28;105426;-71
2024/01/14 00:19:36;;;;;;;5.37;3.37;;;3.40;99.90;2.60;99690.00;;;;4964116;28;82710;-69
2024/01/14 00:22:02;;;;;;;5.13;3.43;;;2.80;99.90;2.60;99690.00;;;;4971237;28;84411;-69
2024/01/14 00:24:28;;;;;;;3.27;2.87;;;2.90;99.90;2.60;99682.00;;;;4958140;28;83410;-69
2024/01/14 00:26:54;;;;;;;4.07;3.50;;;2.80;99.90;2.60;99682.00;;;;4961241;28;109930;-71
2024/01/14 00:29:20;;;;;;;5.07;3.10;;;2.80;99.90;2.60;99665.00;;;;4960169;28;84973;-70
2024/01/14 00:31:46;;;;;;;6.83;3.23;;;2.80;99.90;2.60;99676.00;;;;4954401;28;112413;-69
2024/01/14 00:34:12;;;;;;;3.67;3.03;;;2.80;99.90;2.60;99673.00;;;;4960344;28;83282;-68
2024/01/14 00:36:39;;;;;;;4.57;3.47;;;2.90;99.90;2.60;99670.00;;;;4956335;28;108888;-71
2024/01/14 00:39:05;;;;;;;3.17;2.20;;;2.90;99.90;2.70;99673.00;;;;4952358;28;82813;-69
2024/01/14 00:41:31;;;;;;;2.67;2.20;;;2.90;99.90;2.70;99665.00;;;;4987076;28;84723;-70
2024/01/14 00:43:57;;;;;;;5.00;2.73;;;3.00;99.90;2.70;99655.00;;;;4957416;28;83846;-70
2024/01/14 00:46:23;;;;;;;4.00;3.33;;;3.00;99.90;2.70;99671.00;;;;4955824;28;99228;-69
2024/01/14 00:48:49;;;;;;;5.60;3.03;;;2.90;99.90;2.70;99663.00;;;;4959572;28;82772;-70
2024/01/14 00:51:15;;;;;;;3.50;2.40;;;3.00;99.90;2.70;99646.00;;;;4957483;28;83033;-71
2024/01/14 00:53:41;;;;;;;3.47;2.53;;;3.00;99.90;2.70;99672.00;;;;4959389;28;111232;-70
2024/01/14 00:56:06;;;;;;;2.90;2.63;;;2.90;99.90;2.60;99663.00;;;;4957677;28;111073;-70
2024/01/14 00:58:32;;;;;;;5.33;3.17;;;2.90;99.90;2.60;99654.00;;;;4959751;28;108896;-70
2024/01/14 01:00:57;;;;;;;4.63;3.53;;;2.90;99.90;2.50;99663.00;;;;4968695;28;111854;-72
2024/01/14 01:03:23;;;;;;;4.17;3.67;;;2.90;99.90;2.50;99662.00;;;;4950376;28;118541;-71
2024/01/14 01:05:49;;;;;;;3.97;3.23;;;2.70;99.90;2.40;99647.00;;;;4939286;28;109838;-70
2024/01/14 01:08:14;;;;;;;3.93;2.90;;;2.80;99.90;2.40;99653.00;;;;4958426;28;82695;-73
2024/01/14 01:10:41;;;;;;;6.70;3.47;;;2.70;99.90;2.30;99656.00;;;;4938713;28;87702;-72
2024/01/14 01:13:14;;;;;;;5.13;3.87;;;2.60;99.90;2.30;99639.00;;;;4954761;28;83787;-78
2024/01/14 01:15:39;;;;;;;4.77;4.20;;;3.30;99.90;2.20;99632.00;;;;4957140;28;82952;-74
2024/01/14 01:18:05;;;;;;;4.97;3.33;;;2.50;99.90;2.20;99641.00;;;;4950255;28;82880;-74
2024/01/14 01:20:31;;;;;;;5.13;2.93;;;2.40;99.90;2.10;99646.00;;;;4973651;28;84615;-72
2024/01/14 01:22:57;;;;;;;4.60;3.30;;;2.30;99.90;2.10;99634.00;;;;4957045;28;111512;-73
2024/01/14 01:25:23;;;;;;;5.80;4.30;;;2.30;99.90;2.10;99626.00;;;;4949785;28;83016;-76
2024/01/14 01:27:51;;;;;;;6.07;3.07;;;2.30;99.90;2.10;99649.00;;;;4956304;28;94196;-73
2024/01/14 01:30:17;;;;;;;4.00;3.33;;;2.30;99.90;2.10;99644.00;;;;4952135;28;98385;-72
2024/01/14 01:32:43;;;;;;;6.30;2.97;;;2.40;99.90;2.00;99636.00;;;;4957198;28;112806;-73
2024/01/14 01:35:08;;;;;;;5.53;2.97;;;2.30;99.90;2.00;99625.00;;;;4950475;28;102740;-75
2024/01/14 01:37:34;;;;;;;3.60;2.80;;;2.30;99.90;2.00;99618.00;;;;4961723;28;107841;-76
2024/01/14 01:40:01;;;;;;;4.47;3.63;;;3.00;99.90;2.10;99612.00;;;;4972298;28;84262;-76
2024/01/14 01:42:26;;;;;;;3.57;3.13;;;2.20;99.90;2.10;99621.00;;;;4952045;28;82904;-77
2024/01/14 01:44:52;;;;;;;3.87;2.93;;;2.00;99.90;2.00;99622.00;;;;4949025;28;108354;-74
2024/01/14 01:47:19;;;;;;;5.27;3.03;;;2.30;99.90;2.00;99613.00;;;;4958101;28;82286;-72
2024/01/14 01:49:45;;;;;;;6.80;3.17;;;2.40;99.90;2.00;99604.00;;;;4959491;28;95067;-71
2024/01/14 01:52:12;;;;;;;7.17;3.53;;;2.20;99.90;1.90;99603.00;;;;4948427;28;105981;-73
2024/01/14 01:54:39;;;;;;;5.50;3.53;;;2.20;99.90;1.90;99598.00;;;;4953565;28;108802;-70
2024/01/14 01:57:07;;;;;;;4.10;3.13;;;2.20;99.90;1.90;99595.00;;;;4953338;28;108091;-72
2024/01/14 01:59:33;;;;;;;4.50;3.23;;;2.10;99.90;1.90;99601.00;;;;4958380;28;82473;-70
2024/01/14 02:02:03;;;;;;;6.17;4.10;;;2.10;99.90;1.80;99596.00;;;;4950050;28;111957;-72
2024/01/14 02:04:28;;;;;;;3.83;3.33;;;1.60;99.90;1.80;99588.00;;;;4955758;28;101219;-69
2024/01/14 02:06:55;;;;;;;4.13;2.90;;;2.10;99.90;1.80;99583.00;;;;4960094;28;82814;-72
2024/01/14 02:09:21;;;;;;;4.90;2.97;;;2.10;99.90;1.80;99595.00;;;;4955697;28;84048;-71
2024/01/14 02:11:47;;;;;;;4.37;3.30;;;2.00;99.90;1.80;99591.00;;;;4950507;28;82628;-72
2024/01/14 02:14:13;;;;;;;5.13;3.47;;;2.20;99.90;1.80;99585.00;;;;4939295;28;82826;-71
2024/01/14 02:16:38;;;;;;;6.20;3.43;;;2.00;99.90;1.80;99591.00;;;;4958552;28;82808;-71
2024/01/14 02:19:04;;;;;;;3.83;2.97;;;2.80;99.90;1.80;99591.00;;;;4955327;28;114202;-70
2024/01/14 02:21:36;;;;;;;6.80;4.50;;;2.20;99.90;1.70;99582.00;;;;4958275;28;83242;-71
2024/01/14 02:24:26;;;;;;;9.03;4.60;;;2.00;99.90;1.70;99576.00;;;;4954073;28;91129;-69
2024/01/14 02:26:52;;;;;;;5.10;3.40;;;3.10;99.90;1.80;99575.00;;;;4971938;28;82779;-69
2024/01/14 02:29:19;;;;;;;7.30;3.00;;;2.10;99.90;1.70;99557.00;;;;4953203;28;112444;-69
2024/01/14 02:31:45;;;;;;;5.30;4.33;;;2.00;99.90;1.80;99565.00;;;;4958112;28;103780;-69
2024/01/14 02:34:12;;;;;;;4.77;3.63;;;2.00;99.90;1.80;99572.00;;;;4953928;28;82932;-69
2024/01/14 02:36:38;;;;;;;4.60;3.57;;;2.10;99.90;1.80;99564.00;;;;4954376;28;82160;-68
2024/01/14 02:39:04;;;;;;;4.77;3.33;;;3.20;99.90;1.80;99560.00;;;;4962006;28;99422;-67
2024/01/14 02:41:31;;;;;;;3.87;3.07;;;3.00;99.90;1.80;99544.00;;;;4960663;28;83276;-68
2024/01/14 02:43:57;;;;;;;7.47;3.40;;;2.10;99.90;1.80;99542.00;;;;4959983;28;101993;-68
2024/01/14 02:46:24;;;;;;;6.20;2.90;;;2.10;99.90;1.80;99544.00;;;;4942657;28;82812;-69
2024/01/14 02:48:50;;;;;;;7.50;4.33;;;2.20;99.90;1.80;99540.00;;;;4960428;28;85087;-67
2024/01/14 02:51:16;;;;;;;11.63;3.63;;;2.90;99.90;1.80;99534.00;;;;4976687;28;85852;-69
2024/01/14 02:53:42;;;;;;;5.03;3.70;;;2.00;99.90;1.80;99550.00;;;;4968366;28;83194;-68
2024/01/14 02:56:10;;;;;;;7.40;4.20;;;2.10;99.90;1.80;99542.00;;;;4956973;28;82461;-66
2024/01/14 02:58:36;;;;;;;5.13;4.07;;;3.10;99.90;1.80;99561.00;;;;4962718;28;82911;-68
2024/01/14 03:01:02;;;;;;;5.03;3.50;;;2.10;99.90;1.80;99551.00;;;;4959242;28;89660;-69
2024/01/14 03:03:28;;;;;;;6.03;4.03;;;2.20;99.90;1.80;99546.00;;;;4960888;28;82661;-68
2024/01/14 03:05:53;;;;;;;6.07;3.63;;;3.20;99.90;1.80;99544.00;;;;4971761;28;84614;-69
2024/01/14 03:08:19;;;;;;;5.33;3.20;;;2.10;99.90;1.80;99554.00;;;;4963245;28;83733;-68
2024/01/14 03:10:45;;;;;;;5.83;3.57;;;2.10;99.90;1.80;99544.00;;;;4960675;28;112133;-71
2024/01/14 03:13:15;;;;;;;6.80;4.53;;;2.00;99.90;1.70;99536.00;;;;4953630;28;91319;-69
2024/01/14 03:15:45;;;;;;;4.47;2.90;;;3.20;99.90;1.80;99550.00;;;;4953997;28;82764;-70
2024/01/14 03:18:15;;;;;;;4.20;3.80;;;1.90;99.90;1.80;99537.00;;;;4954393;28;94588;-69
2024/01/14 03:20:42;;;;;;;5.57;3.70;;;2.20;99.90;1.80;99541.00;;;;4955554;28;82785;-70
2024/01/14 03:23:08;;;;;;;6.97;3.73;;;2.00;99.90;1.80;99536.00;;;;4959564;28;82603;-68
2024/01/14 03:25:34;;;;;;;5.93;3.60;;;2.00;99.90;1.70;99527.00;;;;4969712;28;81900;-68
2024/01/14 03:27:59;;;;;;;6.87;4.13;;;2.30;99.90;1.80;99529.00;;;;4954604;28;83091;-68
2024/01/14 03:30:25;;;;;;;4.73;2.83;;;2.20;99.90;1.70;99532.00;;;;4957168;28;112726;-69
2024/01/14 03:32:50;;;;;;;5.23;4.10;;;2.00;99.90;1.70;99531.00;;;;4962576;28;87433;-70
2024/01/14 03:35:20;;;;;;;4.27;3.73;;;2.00;99.90;1.70;99528.00;;;;4958635;28;109008;-68
2024/01/14 03:37:45;;;;;;;8.27;4.10;;;2.00;99.90;1.70;99532.00;;;;4962651;28;92440;-69
2024/01/14 03:40:11;;;;;;;5.73;3.50;;;2.00;99.90;1.60;99533.00;;;;4956706;28;112380;-68
2024/01/14 03:42:37;;;;;;;7.70;4.37;;;1.90;99.90;1.60;99533.00;;;;4953725;28;82811;-67
2024/01/14 03:45:04;;;;;;;5.27;3.50;;;1.90;99.90;1.60;99524.00;;;;4960077;28;106706;-69
2024/01/14 03:47:30;;;;;;;3.70;3.40;;;1.90;99.90;1.60;99526.00;;;;4951315;28;102795;-66
2024/01/14 03:49:56;;;;;;;6.83;4.87;;;1.80;99.90;1.60;99528.00;;;;4959258;28;83264;-68
2024/01/14 03:52:21;;;;;;;7.07;4.53;;;0.20;99.90;1.60;99524.00;;;;4958866;28;82764;-67
2024/01/14 03:54:47;;;;;;;5.70;4.83;;;1.90;99.90;1.60;99516.00;;;;4954995;28;88643;-67
2024/01/14 03:57:13;;;;;;;6.60;4.00;;;1.80;99.90;1.60;99515.00;;;;4961028;28;84416;-68
2024/01/14 03:59:39;;;;;;;6.77;3.50;;;1.90;99.90;1.60;99526.00;;;;4959037;28;113623;-68
2024/01/14 04:02:06;;;;;;;5.27;3.10;;;2.10;99.90;1.60;99522.00;;;;4966926;28;82884;-67
2024/01/14 04:04:31;;;;;;;6.80;4.23;;;2.80;99.90;1.60;99522.00;;;;4960650;28;82943;-68
2024/01/14 04:06:57;;;;;;;7.07;3.77;;;1.90;99.90;1.60;99512.00;;;;4958815;28;83845;-68
2024/01/14 04:09:23;;;;;;;5.57;4.10;;;1.90;99.90;1.60;99525.00;;;;4957073;28;113734;-68
2024/01/14 04:11:50;;;;;;;4.70;3.97;;;1.80;99.90;1.60;99527.00;;;;4960194;28;95317;-69
2024/01/14 04:14:15;;;;;;;4.20;3.77;;;1.90;99.90;1.60;99519.00;;;;4962437;28;107035;-69
2024/01/14 04:16:41;;;;;;;9.50;4.20;;;1.80;99.90;1.60;99523.00;;;;4965400;28;111561;-67
2024/01/14 04:19:08;;;;;;;6.20;3.87;;;2.00;99.90;1.60;99525.00;;;;4963512;28;112400;-69
2024/01/14 04:21:34;;;;;;;6.80;4.47;;;1.90;99.90;1.60;99523.00;;;;4949703;28;83940;-70
2024/01/14 04:24:02;;;;;;;5.33;3.63;;;2.70;99.90;1.70;99526.00;;;;4956249;28;97864;-67
2024/01/14 04:26:28;;;;;;;5.97;3.83;;;1.80;99.90;1.70;99519.00;;;;4956024;28;82975;-67
2024/01/14 04:28:54;;;;;;;5.67;4.10;;;1.90;99.90;1.70;99532.00;;;;4953646;28;82660;-67
2024/01/14 04:31:21;;;;;;;6.10;4.20;;;1.90;99.90;1.70;99531.00;;;;4959628;28;83406;-68
2024/01/14 04:33:48;;;;;;;4.70;3.90;;;2.00;99.90;1.70;99529.00;;;;4956703;28;82740;-68
2024/01/14 04:36:17;;;;;;;5.50;3.33;;;2.00;99.90;1.70;99539.00;;;;4957386;28;82751;-69
2024/01/14 04:38:43;;;;;;;6.10;3.93;;;1.90;99.90;1.70;99534.00;;;;4960093;28;82340;-70
2024/01/14 04:41:09;;;;;;;5.93;4.67;;;2.10;99.90;1.80;99530.00;;;;4956694;28;86048;-70
2024/01/14 04:43:38;;;;;;;4.70;4.13;;;2.00;99.90;1.80;99524.00;;;;4958497;28;85350;-69
2024/01/14 04:46:08;;;;;;;5.67;4.17;;;2.10;99.90;1.70;99524.00;;;;4958641;28;104960;-67
2024/01/14 04:48:33;;;;;;;4.00;3.37;;;2.20;99.90;1.70;99520.00;;;;4957326;28;83640;-70
2024/01/14 04:50:59;;;;;;;6.23;4.17;;;2.00;99.90;1.70;99506.00;;;;4959642;28;110501;-69
2024/01/14 04:53:25;;;;;;;6.53;3.37;;;2.10;99.90;1.80;99518.00;;;;4937730;28;83368;-68
2024/01/14 04:55:51;;;;;;;5.03;3.97;;;2.00;99.90;1.80;99523.00;;;;4958261;28;85109;-68
2024/01/14 04:58:17;;;;;;;4.97;3.77;;;2.10;99.90;1.80;99514.00;;;;4950488;28;87678;-69
2024/01/14 05:00:42;;;;;;;3.03;2.73;;;2.10;99.90;1.80;99517.00;;;;4958325;28;86606;-69
2024/01/14 05:03:08;;;;;;;6.57;3.73;;;2.00;99.90;1.80;99513.00;;;;4955593;28;102457;-68
2024/01/14 05:05:34;;;;;;;4.77;3.67;;;2.10;99.90;1.80;99509.00;;;;4957444;28;83182;-68
2024/01/14 05:08:00;;;;;;;6.30;4.00;;;2.00;99.90;1.90;99507.00;;;;4950567;28;82587;-67
2024/01/14 05:10:25;;;;;;;5.43;4.03;;;2.00;99.90;1.90;99510.00;;;;4957502;28;109784;-69
2024/01/14 05:12:51;;;;;;;6.67;3.63;;;2.10;99.90;1.90;99507.00;;;;4948464;28;105732;-68
2024/01/14 05:15:17;;;;;;;5.57;4.07;;;2.20;99.90;1.90;99514.00;;;;4952297;28;112122;-68
2024/01/14 05:17:42;;;;;;;4.87;3.20;;;2.20;99.90;1.90;99507.00;;;;4961935;28;111568;-68
2024/01/14 05:20:09;;;;;;;4.93;3.40;;;2.20;99.90;1.80;99497.00;;;;4957485;28;110554;-68
2024/01/14 05:22:35;;;;;;;3.90;3.60;;;2.10;99.90;1.80;99496.00;;;;4957139;28;82877;-67
2024/01/14 05:25:00;;;;;;;5.57;3.00;;;2.80;99.90;1.80;99487.00;;;;4955062;28;83524;-68
2024/01/14 05:27:26;;;;;;;6.77;3.70;;;2.10;99.90;1.80;99496.00;;;;4957943;27;82309;-69
2024/01/14 05:29:52;;;;;;;5.33;3.57;;;2.00;99.90;1.70;99500.00;;;;4959627;28;110418;-69
2024/01/14 05:32:17;;;;;;;6.50;3.50;;;2.00;99.90;1.70;99493.00;;;;4961813;28;109267;-68
2024/01/14 05:34:45;;;;;;;5.50;3.67;;;1.90;99.90;1.70;99488.00;;;;4955204;28;113066;-67
2024/01/14 05:37:11;;;;;;;6.27;3.47;;;2.90;99.90;1.70;99485.00;;;;4959770;28;84248;-69
2024/01/14 05:39:37;;;;;;;5.13;3.93;;;2.10;99.90;1.70;99480.00;;;;4959334;28;82884;-67
2024/01/14 05:42:04;;;;;;;7.40;4.03;;;1.90;99.90;1.70;99478.00;;;;4961192;28;95675;-68
2024/01/14 05:44:33;;;;;;;7.93;5.17;;;2.00;99.90;1.60;99479.00;;;;4955601;28;101537;-68
2024/01/14 05:46:58;;;;;;;4.87;4.03;;;1.90;99.90;1.50;99481.00;;;;4954809;28;85061;-69
2024/01/14 05:49:24;;;;;;;6.90;3.93;;;1.90;99.90;1.50;99483.00;;;;4952999;28;106085;-69
2024/01/14 05:51:50;;;;;;;5.60;4.63;;;1.80;99.90;1.50;99486.00;;;;4959147;28;108286;-67
2024/01/14 05:54:16;;;;;;;4.27;3.77;;;2.50;99.90;1.50;99486.00;;;;4956750;28;90950;-69
2024/01/14 05:56:42;;;;;;;5.13;3.93;;;1.60;99.90;1.40;99470.00;;;;4962933;28;82895;-68
2024/01/14 05:59:07;;;;;;;6.93;4.73;;;1.80;99.90;1.40;99475.00;;;;4962724;28;93222;-68
2024/01/14 06:01:33;;;;;;;5.40;3.73;;;1.80;99.90;1.40;99474.00;;;;4957783;28;108216;-68
2024/01/14 06:03:59;;;;;;;6.97;4.97;;;1.50;99.90;1.40;99485.00;;;;4961531;28;99127;-69
2024/01/14 06:06:24;;;;;;;7.70;5.30;;;1.70;99.90;1.40;99474.00;;;;4956746;28;82709;-67
2024/01/14 06:08:50;;;;;;;6.97;4.33;;;1.60;99.90;1.40;99472.00;;;;4963290;28;109345;-68
2024/01/14 06:11:16;;;;;;;9.57;4.97;;;1.70;99.90;1.40;99473.00;;;;4964069;28;105771;-68
2024/01/14 06:13:42;;;;;;;10.47;5.73;;;1.60;99.90;1.40;99471.00;;;;4959620;28;87894;-68
2024/01/14 06:16:08;;;;;;;6.47;5.07;;;1.60;99.90;1.40;99475.00;;;;4959489;28;87624;-68
2024/01/14 06:18:35;;;;;;;7.27;5.63;;;1.70;99.90;1.40;99472.00;;;;4961805;28;88043;-69
2024/01/14 06:21:01;;;;;;;8.80;5.90;;;1.70;99.90;1.40;99477.00;;;;4961489;28;87370;-70
2024/01/14 06:23:28;;;;;;;8.97;5.27;;;1.70;99.90;1.40;99482.00;;;;4957003;28;117658;-68
2024/01/14 06:25:54;;;;;;;7.93;5.00;;;1.70;99.90;1.40;99489.00;;;;4960348;28;88093;-69
2024/01/14 06:28:20;;;;;;;6.70;4.67;;;1.70;99.90;1.40;99488.00;;;;4962484;28;106076;-69
2024/01/14 06:30:46;;;;;;;6.90;5.10;;;1.70;99.90;1.50;99482.00;;;;4968609;28;87525;-68
2024/01/14 06:33:12;;;;;;;6.33;4.47;;;1.70;99.90;1.50;99494.00;;;;4957595;28;118344;-69
2024/01/14 06:35:38;;;;;;;6.63;4.13;;;1.80;99.90;1.50;99489.00;;;;4960453;28;116580;-69
2024/01/14 06:38:04;;;;;;;7.53;3.87;;;1.80;99.90;1.50;99494.00;;;;4973519;28;110013;-70
2024/01/14 06:40:30;;;;;;;4.50;3.77;;;2.40;99.90;1.50;99478.00;;;;4954375;28;109772;-69
2024/01/14 06:42:56;;;;;;;6.77;4.70;;;1.70;99.90;1.60;99481.00;;;;4955898;28;117740;-68
2024/01/14 06:45:21;;;;;;;4.80;4.33;;;1.80;99.90;1.60;99471.00;;;;4955507;28;116762;-67
2024/01/14 06:47:47;;;;;;;6.53;4.60;;;1.70;99.90;1.60;99478.00;;;;4954995;28;110383;-67
2024/01/14 06:50:13;;;;;;;7.73;4.23;;;1.90;99.90;1.60;99476.00;;;;4952103;28;108501;-71
2024/01/14 06:52:40;;;;;;;9.17;3.93;;;2.00;99.90;1.70;99473.00;;;;4949079;28;102655;-70
2024/01/14 06:55:06;;;;;;;7.27;3.90;;;1.90;99.90;1.70;99475.00;;;;4949589;28;87873;-69
2024/01/14 06:57:35;;;;;;;4.53;3.10;;;1.90;99.90;1.70;99490.00;;;;4949771;28;97406;-67
2024/01/14 07:00:04;;;;;;;3.33;2.77;;;2.00;99.90;1.70;99502.00;;;;4952715;28;87692;-68
2024/01/14 07:02:29;;;;;;;4.07;2.93;;;1.90;99.90;1.70;99482.00;;;;4954862;28;91186;-67
2024/01/14 07:04:55;;;;;;;4.83;3.70;;;2.10;99.90;1.80;99483.00;;;;4954280;28;100187;-68
2024/01/14 07:07:21;;;;;;;5.00;3.83;;;2.00;99.90;1.80;99485.00;;;;4953129;28;88530;-67
2024/01/14 07:09:47;;;;;;;4.87;3.23;;;2.10;99.90;1.80;99493.00;;;;4952156;28;89029;-67
2024/01/14 07:12:13;;;;;;;5.90;3.00;;;2.10;99.90;1.80;99504.00;;;;4951279;28;115939;-67
2024/01/14 07:14:41;;;;;;;4.60;3.57;;;2.10;99.90;1.80;99489.00;;;;4951841;28;110959;-67
2024/01/14 07:17:07;;;;;;;4.93;3.93;;;2.20;99.90;1.90;99480.00;;;;4950578;28;88231;-68
2024/01/14 07:19:35;;;;;;;5.10;3.53;;;2.00;99.90;1.80;99478.00;;;;4953916;28;88020;-67
2024/01/14 07:22:02;;;;;;;4.23;3.70;;;2.20;99.90;1.80;99478.00;;;;4954463;28;89217;-67
2024/01/14 07:24:27;;;;;;;4.20;2.93;;;2.00;99.90;1.90;99492.00;;;;4955414;28;88292;-69
2024/01/14 07:26:53;;;;;;;5.00;3.53;;;2.10;99.90;1.90;99472.00;;;;4955874;28;109237;-69
2024/01/14 07:29:19;;;;;;;5.07;3.27;;;2.10;99.90;1.80;99480.00;;;;4952181;28;107408;-69
2024/01/14 07:31:44;;;;;;;7.97;4.20;;;2.10;99.90;1.80;99489.00;;;;4951805;28;120071;-69
2024/01/14 07:34:10;;;;;;;5.83;3.77;;;2.10;99.90;1.80;99479.00;;;;4954790;28;115844;-68
2024/01/14 07:36:36;;;;;;;4.13;3.70;;;2.10;99.90;1.80;99476.00;;;;4955300;28;88497;-69
2024/01/14 07:39:03;;;;;;;6.23;3.77;;;2.00;99.90;1.80;99469.00;;;;4950873;28;110039;-69
2024/01/14 07:41:28;;;;;;;7.07;3.87;;;2.10;99.90;1.80;99473.00;;;;4953396;28;89442;-71
2024/01/14 07:43:54;;;;;;;3.53;3.23;;;3.30;99.90;1.70;99476.00;;;;4948871;28;89193;-69
2024/01/14 07:46:20;;;;;;;8.50;4.53;;;2.00;99.90;1.80;99477.00;;;;4951233;28;87926;-68
2024/01/14 07:48:46;;;;;;;5.80;3.73;;;2.00;99.90;1.80;99471.00;;;;4951304;28;87939;-70
2024/01/14 07:51:12;;;;;;;3.60;3.30;;;2.00;99.90;1.80;99476.00;;;;4954030;28;88552;-69
2024/01/14 07:53:38;;;;;;;6.00;3.23;;;2.00;99.90;1.70;99477.00;;;;4951072;28;88591;-70
2024/01/14 07:56:04;;;;;;;6.90;4.43;;;2.00;99.90;1.70;99478.00;;;;4949963;28;90997;-69
2024/01/14 07:58:30;;;;;;;5.30;3.30;;;2.00;99.90;1.70;99470.00;;;;4945290;28;96400;-71
2024/01/14 08:00:56;;;;;;;7.43;4.47;;;2.00;99.90;1.60;99486.00;;;;4967970;28;91298;-69
2024/01/14 08:03:22;;;;;;;4.80;3.63;;;1.90;99.90;1.60;99490.00;;;;4950488;28;90072;-69
2024/01/14 08:05:47;;;;;;;3.90;3.43;;;1.90;99.90;1.60;99482.00;;;;4949853;28;111406;-69
2024/01/14 08:08:13;;;;;;;6.60;3.70;;;2.30;99.90;1.60;99494.00;;;;4950098;28;106188;-69
2024/01/14 08:10:39;;;;;;;7.63;4.07;;;1.90;99.90;1.60;99493.00;;;;4951577;28;100768;-69
2024/01/14 08:13:05;;;;;;;7.80;5.37;;;1.90;99.90;1.60;99497.00;;;;4955020;28;88741;-69
2024/01/14 08:15:31;;;;;;;6.73;4.17;;;1.80;99.90;1.60;99505.00;;;;4960722;28;87900;-72
2024/01/14 08:17:56;;;;;;;7.93;4.17;;;1.80;99.90;1.60;99513.00;;;;4962201;28;99399;-70
2024/01/14 08:20:22;;;;;;;6.17;3.97;;;2.00;99.90;1.60;99506.00;;;;4953888;28;115558;-70
2024/01/14 08:22:48;;;;;;;6.17;4.77;;;1.90;99.90;1.70;99508.00;;;;4952671;28;87897;-70
2024/01/14 08:25:14;;;;;;;7.37;4.37;;;1.90;99.90;1.70;99521.00;;;;4952629;28;103241;-69
2024/01/14 08:27:40;;;;;;;7.40;4.77;;;2.00;99.90;1.70;99506.00;;;;4951111;28;109940;-69
2024/01/14 08:30:07;;;;;;;4.63;3.63;;;2.00;99.90;1.70;99506.00;;;;4944040;28;103450;-70
2024/01/14 08:32:33;;;;;;;5.80;3.93;;;2.00;99.90;1.70;99508.00;;;;4958122;28;90446;-70
2024/01/14 08:34:59;;;;;;;7.83;4.83;;;2.10;99.90;1.80;99505.00;;;;4949333;28;88202;-69
2024/01/14 08:37:29;;;;;;;6.70;4.07;;;2.10;99.90;1.70;99516.00;;;;4950943;28;108871;-70
2024/01/14 08:39:54;;;;;;;5.77;4.50;;;2.10;99.90;1.80;99511.00;;;;4954107;28;88111;-69
2024/01/14 08:42:20;;;;;;;6.00;3.73;;;1.90;99.90;1.80;99502.00;;;;4953669;28;92458;-70
2024/01/14 08:44:47;;;;;;;5.23;3.97;;;2.10;99.90;1.80;99514.00;;;;4953813;28;109020;-72
2024/01/14 08:47:13;;;;;;;7.77;3.67;;;2.10;99.90;1.80;99511.00;;;;4968515;28;88235;-69
2024/01/14 08:49:45;;;;;;;6.67;4.10;;;2.10;99.90;1.80;99500.00;;;;4949850;28;89754;-70
2024/01/14 08:52:11;;;;;;;5.00;3.63;;;2.10;99.90;1.80;99503.00;;;;4951179;28;88332;-70
2024/01/14 08:54:37;;;;;;;9.00;4.80;;;2.20;99.90;1.90;99505.00;;;;4953329;28;87768;-70
2024/01/14 08:57:03;;;;;;;4.97;3.53;;;2.10;99.90;1.90;99510.00;;;;4952358;28;89315;-70
2024/01/14 08:59:29;;;;;;;5.23;3.87;;;1.60;99.90;1.90;99515.00;;;;4948947;28;118915;-70
2024/01/14 09:01:55;;;;;;;6.23;4.23;;;2.10;99.90;1.90;99521.00;;;;4952337;28;118426;-69
2024/01/14 09:04:20;;;;;;;7.60;4.17;;;2.20;99.90;1.90;99518.00;;;;4951522;28;110126;-69
2024/01/14 09:06:46;;;;;;;4.43;3.87;;;2.20;99.90;1.90;99506.00;;;;4951417;28;87138;-68
2024/01/14 09:09:12;;;;;;;7.37;4.43;;;2.70;99.90;2.00;99515.00;;;;4973998;28;115102;-69
2024/01/14 09:11:38;;;;;;;5.63;4.30;;;2.20;99.90;2.00;99512.00;;;;4948870;28;88876;-69
2024/01/14 09:14:05;;;;;;;5.23;4.03;;;2.30;99.90;2.00;99520.00;;;;4950480;28;109183;-68
2024/01/14 09:16:31;;;;;;;5.27;4.33;;;2.20;99.90;2.00;99516.00;;;;4952878;28;92761;-69
2024/01/14 09:18:57;;;;;;;6.40;4.37;;;2.30;99.90;2.00;99530.00;;;;4953111;28;101683;-70
2024/01/14 09:21:23;;;;;;;4.67;3.93;;;2.40;99.90;1.90;99524.00;;;;4952259;28;108816;-70
2024/01/14 09:23:49;;;;;;;5.97;3.77;;;2.30;99.90;1.90;99531.00;;;;4954521;28;87930;-69
2024/01/14 09:26:15;;;;;;;5.97;4.13;;;2.20;99.90;1.90;99519.00;;;;4953755;28;109684;-71
2024/01/14 09:28:40;;;;;;;7.23;3.77;;;2.10;99.90;1.90;99525.00;;;;4951869;28;118480;-70
2024/01/14 09:31:06;;;;;;;4.17;3.77;;;2.00;99.90;1.90;99546.00;;;;4948246;28;117369;-72
2024/01/14 09:33:32;;;;;;;6.00;3.17;;;2.50;99.90;1.90;99548.00;;;;4985254;28;87879;-70
2024/01/14 09:36:09;;;;;;;3.67;3.30;;;2.20;99.90;1.80;99541.00;;;;4951587;28;87788;-71
2024/01/14 09:38:35;;;;;;;4.33;3.47;;;2.00;99.90;1.80;99541.00;;;;4947068;28;88900;-70
2024/01/14 09:41:44;;;;;;;4.27;3.47;;;2.00;99.90;1.70;99532.00;;;;4950601;28;89529;-70
2024/01/14 09:44:15;;;;;;;5.03;3.73;;;2.10;99.90;1.70;99523.00;;;;4951753;28;88395;-70
2024/01/14 09:46:42;;;;;;;5.73;4.47;;;1.90;99.90;1.70;99538.00;;;;4951561;28;87935;-69
2024/01/14 09:49:10;;;;;;;5.63;4.03;;;1.90;99.90;1.80;99536.00;;;;4952300;28;89151;-70
2024/01/14 09:51:37;;;;;;;5.07;3.57;;;2.10;99.90;1.80;99529.00;;;;4948439;28;88449;-69
2024/01/14 09:54:04;;;;;;;5.47;4.00;;;2.80;99.90;1.90;99521.00;;;;4950643;28;88020;-69
2024/01/14 09:56:33;;;;;;;7.33;3.77;;;2.10;99.90;2.00;99531.00;;;;4947836;28;87058;-68
2024/01/14 09:59:00;;;;;;;6.83;4.40;;;2.20;99.90;2.00;99524.00;;;;4950350;28;88053;-69
2024/01/14 10:01:30;;;;;;;5.97;4.50;;;2.20;99.90;2.10;99521.00;;;;4949323;28;87989;-69
2024/01/14 10:04:00;;;;;;;4.27;3.57;;;2.40;99.90;2.20;99518.00;;;;4947728;28;88708;-69
2024/01/14 10:06:29;;;;;;;6.63;3.93;;;2.40;99.90;2.20;99517.00;;;;4946148;28;88282;-70
2024/01/14 10:08:56;;;;;;;5.63;3.57;;;2.20;99.90;2.20;99515.00;;;;4933136;28;116971;-68
2024/01/14 10:11:22;;;;;;;8.70;4.40;;;2.90;99.90;2.20;99519.00;;;;4945737;28;90334;-72
2024/01/14 10:13:49;;;;;;;7.03;4.27;;;2.50;99.90;2.20;99512.00;;;;4965589;28;112666;-69
2024/01/14 10:16:14;;;;;;;3.30;2.87;;;2.30;99.90;2.10;99504.00;;;;4946442;28;88201;-70
2024/01/14 10:18:40;;;;;;;4.23;3.60;;;2.40;99.90;2.10;99512.00;;;;4950704;28;111416;-69
2024/01/14 10:21:06;;;;;;;4.90;2.70;;;2.40;99.90;2.10;99503.00;;;;4951701;28;116992;-69
2024/01/14 10:23:32;;;;;;;2.97;2.43;;;2.50;99.90;2.10;99501.00;;;;4950213;28;96560;-67
2024/01/14 10:26:01;;;;;;;3.10;2.67;;;2.50;99.90;2.10;99496.00;;;;4951811;28;87735;-70
2024/01/14 10:28:34;;;;;;;3.77;3.23;;;2.40;99.90;2.10;99493.00;;;;4956562;28;89293;-70
2024/01/14 10:31:02;;;;;;;6.60;2.77;;;2.40;99.90;2.10;99481.00;;;;4946525;28;88729;-70
2024/01/14 10:33:32;;;;;;;6.77;4.00;;;2.30;99.90;2.20;99475.00;;;;4951322;28;87930;-69
2024/01/14 10:35:58;;;;;;;6.73;2.77;;;2.40;99.90;2.20;99481.00;;;;4949741;28;88026;-69
2024/01/14 10:38:25;;;;;;;3.10;2.57;;;2.30;99.90;2.20;99464.00;;;;4949954;28;109644;-69
2024/01/14 10:40:51;;;;;;;5.37;3.30;;;2.40;99.90;2.20;99475.00;;;;4951532;28;88578;-69
2024/01/14 10:43:17;;;;;;;5.77;2.90;;;3.00;99.90;2.20;99471.00;;;;4945846;28;87752;-69
2024/01/14 10:45:46;;;;;;;3.70;2.80;;;2.50;99.90;2.20;99471.00;;;;4953403;28;86906;-69
2024/01/14 10:48:13;;;;;;;8.07;3.77;;;2.50;99.90;2.30;99471.00;;;;4951273;28;93725;-67
2024/01/14 10:50:41;;;;;;;6.40;3.10;;;2.50;99.90;2.30;99466.00;;;;4953407;28;105987;-68
2024/01/14 10:53:25;;;;;;;4.83;3.10;;;2.40;99.90;2.30;99464.00;;;;4951409;28;101218;-69
2024/01/14 10:56:03;;;;;;;4.77;3.33;;;2.10;99.90;2.40;99455.00;;;;4949255;28;87753;-67
2024/01/14 10:58:36;;;;;;;6.97;3.70;;;2.50;99.90;2.40;99460.00;;;;4954059;28;89113;-68
2024/01/14 11:01:06;;;;;;;4.60;2.80;;;3.50;99.90;2.40;99462.00;;;;4954153;28;88085;-68
2024/01/14 11:03:33;;;;;;;5.63;3.07;;;2.60;99.90;2.50;99451.00;;;;4947437;28;87751;-68